sensor_id;sensor_type;location;lat;lon;timestamp;P1;durP1;ratioP1;P2;durP2;ratioP2
69856;SDS011;57147;53.582;10.112;2023-10-13T00:04:21;4.22;;;1.48;;
69856;SDS011;57147;53.582;10.112;2023-10-13T00:09:21;5.82;;;1.60;;
69856;SDS011;57147;53.582;10.112;2023-10-13T00:14:22;7.15;;;1.45;;
69856;SDS011;57147;53.582;10.112;2023-10-13T00:19:25;5.05;;;1.83;;
69856;SDS011;57147;53.582;10.112;2023-10-13T00:24:26;5.18;;;1.58;;
69856;SDS011;57147;53.582;10.112;2023-10-13T00:29:26;4.65;;;1.42;;
69856;SDS011;57147;53.582;10.112;2023-10-13T00:34:30;9.10;;;1.75;;
69856;SDS011;57147;53.582;10.112;2023-10-13T00:39:30;7.30;;;1.92;;
69856;SDS011;57147;53.582;10.112;2023-10-13T00:44:31;6.28;;;2.65;;
69856;SDS011;57147;53.582;10.112;2023-10-13T00:49:34;8.00;;;2.33;;
69856;SDS011;57147;53.582;10.112;2023-10-13T00:54:36;6.05;;;2.20;;
69856;SDS011;57147;53.582;10.112;2023-10-13T00:59:38;7.38;;;1.58;;
69856;SDS011;57147;53.582;10.112;2023-10-13T01:04:41;10.70;;;3.17;;
69856;SDS011;57147;53.582;10.112;2023-10-13T01:09:42;8.73;;;2.65;;
69856;SDS011;57147;53.582;10.112;2023-10-13T01:14:42;8.45;;;2.47;;
69856;SDS011;57147;53.582;10.112;2023-10-13T01:19:46;9.45;;;4.13;;
69856;SDS011;57147;53.582;10.112;2023-10-13T01:24:49;11.70;;;3.65;;
69856;SDS011;57147;53.582;10.112;2023-10-13T01:29:49;10.85;;;4.72;;
69856;SDS011;57147;53.582;10.112;2023-10-13T01:34:50;9.73;;;4.13;;
69856;SDS011;57147;53.582;10.112;2023-10-13T01:39:53;13.57;;;4.88;;
69856;SDS011;57147;53.582;10.112;2023-10-13T01:44:54;11.55;;;4.75;;
69856;SDS011;57147;53.582;10.112;2023-10-13T01:49:55;15.02;;;5.75;;
69856;SDS011;57147;53.582;10.112;2023-10-13T01:54:58;13.85;;;4.50;;
69856;SDS011;57147;53.582;10.112;2023-10-13T01:59:59;12.00;;;4.70;;
69856;SDS011;57147;53.582;10.112;2023-10-13T02:04:59;11.68;;;5.22;;
69856;SDS011;57147;53.582;10.112;2023-10-13T02:10:03;13.75;;;6.15;;
69856;SDS011;57147;53.582;10.112;2023-10-13T02:15:04;17.25;;;6.47;;
69856;SDS011;57147;53.582;10.112;2023-10-13T02:20:06;17.00;;;6.07;;
69856;SDS011;57147;53.582;10.112;2023-10-13T02:25:10;18.42;;;8.48;;
69856;SDS011;57147;53.582;10.112;2023-10-13T02:30:11;16.30;;;5.72;;
69856;SDS011;57147;53.582;10.112;2023-10-13T02:35:12;15.70;;;7.07;;
69856;SDS011;57147;53.582;10.112;2023-10-13T02:40:15;18.83;;;7.53;;
69856;SDS011;57147;53.582;10.112;2023-10-13T02:45:16;19.70;;;8.60;;
69856;SDS011;57147;53.582;10.112;2023-10-13T02:50:17;20.52;;;7.70;;
69856;SDS011;57147;53.582;10.112;2023-10-13T02:55:20;19.48;;;7.07;;
69856;SDS011;57147;53.582;10.112;2023-10-13T03:00:21;15.57;;;7.40;;
69856;SDS011;57147;53.582;10.112;2023-10-13T03:05:21;18.90;;;8.27;;
69856;SDS011;57147;53.582;10.112;2023-10-13T03:10:24;16.58;;;6.97;;
69856;SDS011;57147;53.582;10.112;2023-10-13T03:15:25;17.17;;;7.38;;
69856;SDS011;57147;53.582;10.112;2023-10-13T03:20:26;20.88;;;9.93;;
69856;SDS011;57147;53.582;10.112;2023-10-13T03:25:30;21.23;;;8.82;;
69856;SDS011;57147;53.582;10.112;2023-10-13T03:30:31;15.82;;;8.07;;
69856;SDS011;57147;53.582;10.112;2023-10-13T03:35:32;15.57;;;7.57;;
69856;SDS011;57147;53.582;10.112;2023-10-13T03:40:36;10.98;;;6.25;;
69856;SDS011;57147;53.582;10.112;2023-10-13T03:45:37;12.05;;;5.90;;
69856;SDS011;57147;53.582;10.112;2023-10-13T03:50:39;11.00;;;5.55;;
69856;SDS011;57147;53.582;10.112;2023-10-13T03:55:42;8.18;;;4.43;;
69856;SDS011;57147;53.582;10.112;2023-10-13T04:00:43;6.95;;;3.88;;
69856;SDS011;57147;53.582;10.112;2023-10-13T04:05:43;8.80;;;4.65;;
69856;SDS011;57147;53.582;10.112;2023-10-13T04:10:47;10.02;;;5.43;;
69856;SDS011;57147;53.582;10.112;2023-10-13T04:15:47;8.32;;;5.53;;
69856;SDS011;57147;53.582;10.112;2023-10-13T04:20:52;12.52;;;6.32;;
69856;SDS011;57147;53.582;10.112;2023-10-13T04:25:55;14.45;;;8.05;;
69856;SDS011;57147;53.582;10.112;2023-10-13T04:30:56;16.13;;;7.50;;
69856;SDS011;57147;53.582;10.112;2023-10-13T04:36:00;17.02;;;8.45;;
69856;SDS011;57147;53.582;10.112;2023-10-13T04:41:03;16.58;;;8.75;;
69856;SDS011;57147;53.582;10.112;2023-10-13T04:46:04;16.25;;;8.55;;
69856;SDS011;57147;53.582;10.112;2023-10-13T04:51:04;14.90;;;8.68;;
69856;SDS011;57147;53.582;10.112;2023-10-13T04:56:07;17.75;;;9.93;;
69856;SDS011;57147;53.582;10.112;2023-10-13T05:01:08;18.30;;;9.75;;
69856;SDS011;57147;53.582;10.112;2023-10-13T05:06:09;21.55;;;12.45;;
69856;SDS011;57147;53.582;10.112;2023-10-13T05:11:12;20.70;;;11.00;;
69856;SDS011;57147;53.582;10.112;2023-10-13T05:16:12;21.88;;;11.90;;
69856;SDS011;57147;53.582;10.112;2023-10-13T05:21:13;20.63;;;11.35;;
69856;SDS011;57147;53.582;10.112;2023-10-13T05:26:16;20.98;;;11.88;;
69856;SDS011;57147;53.582;10.112;2023-10-13T05:31:17;20.50;;;11.77;;
69856;SDS011;57147;53.582;10.112;2023-10-13T05:36:17;21.83;;;12.23;;
69856;SDS011;57147;53.582;10.112;2023-10-13T05:41:22;28.02;;;17.48;;
69856;SDS011;57147;53.582;10.112;2023-10-13T05:46:22;24.55;;;14.32;;
69856;SDS011;57147;53.582;10.112;2023-10-13T05:51:23;27.40;;;14.23;;
69856;SDS011;57147;53.582;10.112;2023-10-13T05:56:26;26.23;;;14.98;;
69856;SDS011;57147;53.582;10.112;2023-10-13T06:01:27;25.77;;;14.68;;
69856;SDS011;57147;53.582;10.112;2023-10-13T06:06:27;25.02;;;15.13;;
69856;SDS011;57147;53.582;10.112;2023-10-13T06:11:31;30.25;;;18.83;;
69856;SDS011;57147;53.582;10.112;2023-10-13T06:16:31;31.52;;;18.65;;
69856;SDS011;57147;53.582;10.112;2023-10-13T06:21:32;30.20;;;17.63;;
69856;SDS011;57147;53.582;10.112;2023-10-13T06:26:35;37.00;;;19.90;;
69856;SDS011;57147;53.582;10.112;2023-10-13T06:31:35;36.17;;;20.60;;
69856;SDS011;57147;53.582;10.112;2023-10-13T06:36:36;37.10;;;20.83;;
69856;SDS011;57147;53.582;10.112;2023-10-13T06:41:39;43.80;;;20.80;;
69856;SDS011;57147;53.582;10.112;2023-10-13T06:46:40;39.38;;;20.67;;
69856;SDS011;57147;53.582;10.112;2023-10-13T06:51:40;35.50;;;20.63;;
69856;SDS011;57147;53.582;10.112;2023-10-13T06:56:43;39.08;;;21.17;;
69856;SDS011;57147;53.582;10.112;2023-10-13T07:01:44;40.08;;;20.35;;
69856;SDS011;57147;53.582;10.112;2023-10-13T07:06:45;35.45;;;21.23;;
69856;SDS011;57147;53.582;10.112;2023-10-13T07:11:48;37.35;;;22.35;;
69856;SDS011;57147;53.582;10.112;2023-10-13T07:16:55;37.30;;;21.58;;
69856;SDS011;57147;53.582;10.112;2023-10-13T07:21:57;34.33;;;21.20;;
69856;SDS011;57147;53.582;10.112;2023-10-13T07:27:01;40.88;;;23.02;;
69856;SDS011;57147;53.582;10.112;2023-10-13T07:32:01;37.30;;;20.70;;
69856;SDS011;57147;53.582;10.112;2023-10-13T07:37:02;34.78;;;22.08;;
69856;SDS011;57147;53.582;10.112;2023-10-13T07:42:05;37.05;;;20.30;;
69856;SDS011;57147;53.582;10.112;2023-10-13T07:47:06;30.40;;;19.40;;
69856;SDS011;57147;53.582;10.112;2023-10-13T07:52:07;29.50;;;18.85;;
69856;SDS011;57147;53.582;10.112;2023-10-13T07:57:11;28.67;;;18.55;;
69856;SDS011;57147;53.582;10.112;2023-10-13T08:02:12;26.75;;;17.65;;
69856;SDS011;57147;53.582;10.112;2023-10-13T08:07:12;23.13;;;15.70;;
69856;SDS011;57147;53.582;10.112;2023-10-13T08:12:15;26.08;;;15.38;;
69856;SDS011;57147;53.582;10.112;2023-10-13T08:17:16;21.83;;;14.07;;
69856;SDS011;57147;53.582;10.112;2023-10-13T08:22:17;23.40;;;13.25;;
69856;SDS011;57147;53.582;10.112;2023-10-13T08:27:20;18.40;;;13.00;;
69856;SDS011;57147;53.582;10.112;2023-10-13T08:32:22;14.55;;;10.32;;
69856;SDS011;57147;53.582;10.112;2023-10-13T08:37:23;17.30;;;12.40;;
69856;SDS011;57147;53.582;10.112;2023-10-13T08:42:27;15.85;;;11.32;;
69856;SDS011;57147;53.582;10.112;2023-10-13T08:47:29;18.65;;;11.80;;
69856;SDS011;57147;53.582;10.112;2023-10-13T08:52:30;18.55;;;12.55;;
69856;SDS011;57147;53.582;10.112;2023-10-13T08:57:33;17.02;;;11.18;;
69856;SDS011;57147;53.582;10.112;2023-10-13T09:02:34;14.13;;;10.73;;
69856;SDS011;57147;53.582;10.112;2023-10-13T09:07:43;15.65;;;9.95;;
69856;SDS011;57147;53.582;10.112;2023-10-13T09:12:53;11.73;;;8.82;;
69856;SDS011;57147;53.582;10.112;2023-10-13T09:17:53;12.05;;;8.05;;
69856;SDS011;57147;53.582;10.112;2023-10-13T09:22:55;10.10;;;7.18;;
69856;SDS011;57147;53.582;10.112;2023-10-13T09:27:58;10.20;;;7.47;;
69856;SDS011;57147;53.582;10.112;2023-10-13T09:32:59;10.43;;;7.32;;
69856;SDS011;57147;53.582;10.112;2023-10-13T09:38:00;10.13;;;6.85;;
69856;SDS011;57147;53.582;10.112;2023-10-13T09:43:06;7.40;;;5.75;;
69856;SDS011;57147;53.582;10.112;2023-10-13T09:48:08;8.00;;;6.00;;
69856;SDS011;57147;53.582;10.112;2023-10-13T09:53:10;7.43;;;5.75;;
69856;SDS011;57147;53.582;10.112;2023-10-13T09:58:14;9.02;;;6.30;;
69856;SDS011;57147;53.582;10.112;2023-10-13T10:03:17;10.73;;;6.00;;
69856;SDS011;57147;53.582;10.112;2023-10-13T10:08:24;10.07;;;5.75;;
69856;SDS011;57147;53.582;10.112;2023-10-13T10:13:31;9.75;;;6.15;;
69856;SDS011;57147;53.582;10.112;2023-10-13T10:18:39;11.15;;;5.97;;
69856;SDS011;57147;53.582;10.112;2023-10-13T10:23:41;11.38;;;5.45;;
69856;SDS011;57147;53.582;10.112;2023-10-13T10:28:54;11.60;;;6.15;;
69856;SDS011;57147;53.582;10.112;2023-10-13T10:33:56;11.40;;;5.95;;
69856;SDS011;57147;53.582;10.112;2023-10-13T10:38:57;9.27;;;5.82;;
69856;SDS011;57147;53.582;10.112;2023-10-13T10:44:00;12.15;;;5.53;;
69856;SDS011;57147;53.582;10.112;2023-10-13T10:49:03;11.40;;;5.60;;
69856;SDS011;57147;53.582;10.112;2023-10-13T10:54:04;12.48;;;5.43;;
69856;SDS011;57147;53.582;10.112;2023-10-13T10:59:07;11.38;;;6.05;;
69856;SDS011;57147;53.582;10.112;2023-10-13T11:04:09;9.82;;;6.05;;
69856;SDS011;57147;53.582;10.112;2023-10-13T11:09:10;9.32;;;5.47;;
69856;SDS011;57147;53.582;10.112;2023-10-13T11:14:21;9.75;;;5.00;;
69856;SDS011;57147;53.582;10.112;2023-10-13T11:19:33;9.45;;;4.63;;
69856;SDS011;57147;53.582;10.112;2023-10-13T11:24:39;10.32;;;5.40;;
69856;SDS011;57147;53.582;10.112;2023-10-13T11:29:43;10.40;;;5.75;;
69856;SDS011;57147;53.582;10.112;2023-10-13T11:34:43;9.40;;;5.20;;
69856;SDS011;57147;53.582;10.112;2023-10-13T11:39:44;10.15;;;6.13;;
69856;SDS011;57147;53.582;10.112;2023-10-13T11:44:47;12.57;;;5.15;;
69856;SDS011;57147;53.582;10.112;2023-10-13T11:49:48;10.13;;;5.50;;
69856;SDS011;57147;53.582;10.112;2023-10-13T11:54:48;9.27;;;4.78;;
69856;SDS011;57147;53.582;10.112;2023-10-13T11:59:52;11.70;;;5.50;;
69856;SDS011;57147;53.582;10.112;2023-10-13T12:04:52;9.65;;;4.25;;
69856;SDS011;57147;53.582;10.112;2023-10-13T12:09:53;10.60;;;4.18;;
69856;SDS011;57147;53.582;10.112;2023-10-13T12:14:56;13.07;;;5.10;;
69856;SDS011;57147;53.582;10.112;2023-10-13T12:19:57;11.02;;;5.10;;
69856;SDS011;57147;53.582;10.112;2023-10-13T12:24:58;13.20;;;5.07;;
69856;SDS011;57147;53.582;10.112;2023-10-13T12:30:01;8.75;;;4.50;;
69856;SDS011;57147;53.582;10.112;2023-10-13T12:35:02;10.77;;;4.00;;
69856;SDS011;57147;53.582;10.112;2023-10-13T12:40:03;12.15;;;4.50;;
69856;SDS011;57147;53.582;10.112;2023-10-13T12:50:10;9.95;;;3.15;;
69856;SDS011;57147;53.582;10.112;2023-10-13T12:55:11;10.98;;;4.72;;
69856;SDS011;57147;53.582;10.112;2023-10-13T13:00:15;9.48;;;3.35;;
69856;SDS011;57147;53.582;10.112;2023-10-13T13:05:16;11.52;;;4.05;;
69856;SDS011;57147;53.582;10.112;2023-10-13T13:10:16;9.10;;;4.00;;
69856;SDS011;57147;53.582;10.112;2023-10-13T13:15:20;11.30;;;4.25;;
69856;SDS011;57147;53.582;10.112;2023-10-13T13:20:20;12.32;;;4.13;;
69856;SDS011;57147;53.582;10.112;2023-10-13T13:25:21;11.82;;;4.68;;
69856;SDS011;57147;53.582;10.112;2023-10-13T13:30:24;14.43;;;4.40;;
69856;SDS011;57147;53.582;10.112;2023-10-13T13:35:25;10.35;;;3.70;;
69856;SDS011;57147;53.582;10.112;2023-10-13T13:40:26;11.13;;;4.40;;
69856;SDS011;57147;53.582;10.112;2023-10-13T13:45:29;10.85;;;4.60;;
69856;SDS011;57147;53.582;10.112;2023-10-13T13:50:30;8.98;;;3.65;;
69856;SDS011;57147;53.582;10.112;2023-10-13T13:55:33;11.10;;;4.07;;
69856;SDS011;57147;53.582;10.112;2023-10-13T14:00:36;9.68;;;3.85;;
69856;SDS011;57147;53.582;10.112;2023-10-13T14:05:40;9.55;;;4.10;;
69856;SDS011;57147;53.582;10.112;2023-10-13T14:10:41;11.18;;;5.13;;
69856;SDS011;57147;53.582;10.112;2023-10-13T14:15:44;10.55;;;4.55;;
69856;SDS011;57147;53.582;10.112;2023-10-13T14:20:45;8.57;;;4.32;;
69856;SDS011;57147;53.582;10.112;2023-10-13T14:25:46;12.40;;;4.38;;
69856;SDS011;57147;53.582;10.112;2023-10-13T14:30:49;10.18;;;4.43;;
69856;SDS011;57147;53.582;10.112;2023-10-13T14:35:50;9.18;;;5.15;;
69856;SDS011;57147;53.582;10.112;2023-10-13T14:40:55;11.65;;;4.80;;
69856;SDS011;57147;53.582;10.112;2023-10-13T14:45:59;12.30;;;4.85;;
69856;SDS011;57147;53.582;10.112;2023-10-13T14:50:59;13.15;;;4.38;;
69856;SDS011;57147;53.582;10.112;2023-10-13T14:56:00;14.32;;;4.32;;
69856;SDS011;57147;53.582;10.112;2023-10-13T15:01:03;10.95;;;4.70;;
69856;SDS011;57147;53.582;10.112;2023-10-13T15:06:14;13.65;;;5.22;;
69856;SDS011;57147;53.582;10.112;2023-10-13T15:11:15;11.82;;;5.30;;
69856;SDS011;57147;53.582;10.112;2023-10-13T15:16:19;16.13;;;4.78;;
69856;SDS011;57147;53.582;10.112;2023-10-13T15:21:21;10.30;;;4.63;;
69856;SDS011;57147;53.582;10.112;2023-10-13T15:26:25;13.65;;;5.15;;
69856;SDS011;57147;53.582;10.112;2023-10-13T15:31:28;14.85;;;5.78;;
69856;SDS011;57147;53.582;10.112;2023-10-13T15:36:29;13.80;;;4.75;;
69856;SDS011;57147;53.582;10.112;2023-10-13T15:41:30;13.68;;;4.30;;
69856;SDS011;57147;53.582;10.112;2023-10-13T15:46:33;12.50;;;4.85;;
69856;SDS011;57147;53.582;10.112;2023-10-13T15:51:33;12.52;;;5.10;;
69856;SDS011;57147;53.582;10.112;2023-10-13T15:56:35;11.15;;;4.93;;
69856;SDS011;57147;53.582;10.112;2023-10-13T16:01:38;13.52;;;4.60;;
69856;SDS011;57147;53.582;10.112;2023-10-13T16:06:39;13.48;;;5.13;;
69856;SDS011;57147;53.582;10.112;2023-10-13T16:11:40;12.85;;;5.55;;
69856;SDS011;57147;53.582;10.112;2023-10-13T16:16:44;13.65;;;4.72;;
69856;SDS011;57147;53.582;10.112;2023-10-13T16:21:45;15.95;;;4.93;;
69856;SDS011;57147;53.582;10.112;2023-10-13T16:26:46;12.38;;;4.57;;
69856;SDS011;57147;53.582;10.112;2023-10-13T16:31:50;12.77;;;4.35;;
69856;SDS011;57147;53.582;10.112;2023-10-13T16:36:50;12.25;;;4.03;;
69856;SDS011;57147;53.582;10.112;2023-10-13T16:41:51;9.55;;;3.45;;
69856;SDS011;57147;53.582;10.112;2023-10-13T16:46:54;11.30;;;4.35;;
69856;SDS011;57147;53.582;10.112;2023-10-13T16:51:55;10.02;;;4.18;;
69856;SDS011;57147;53.582;10.112;2023-10-13T16:56:56;9.80;;;4.15;;
69856;SDS011;57147;53.582;10.112;2023-10-13T17:01:59;15.00;;;4.25;;
69856;SDS011;57147;53.582;10.112;2023-10-13T17:07:00;11.65;;;3.80;;
69856;SDS011;57147;53.582;10.112;2023-10-13T17:12:01;9.48;;;3.80;;
69856;SDS011;57147;53.582;10.112;2023-10-13T17:17:04;9.32;;;3.42;;
69856;SDS011;57147;53.582;10.112;2023-10-13T17:22:05;13.15;;;3.60;;
69856;SDS011;57147;53.582;10.112;2023-10-13T17:27:06;12.10;;;3.40;;
69856;SDS011;57147;53.582;10.112;2023-10-13T17:32:09;9.45;;;3.80;;
69856;SDS011;57147;53.582;10.112;2023-10-13T17:37:09;12.40;;;4.07;;
69856;SDS011;57147;53.582;10.112;2023-10-13T17:42:10;8.05;;;3.45;;
69856;SDS011;57147;53.582;10.112;2023-10-13T17:47:13;8.00;;;3.33;;
69856;SDS011;57147;53.582;10.112;2023-10-13T17:52:14;8.10;;;2.72;;
69856;SDS011;57147;53.582;10.112;2023-10-13T17:57:14;7.75;;;2.53;;
69856;SDS011;57147;53.582;10.112;2023-10-13T18:02:18;7.35;;;3.20;;
69856;SDS011;57147;53.582;10.112;2023-10-13T18:07:18;9.88;;;3.55;;
69856;SDS011;57147;53.582;10.112;2023-10-13T18:12:19;8.18;;;3.28;;
69856;SDS011;57147;53.582;10.112;2023-10-13T18:17:22;9.23;;;2.53;;
69856;SDS011;57147;53.582;10.112;2023-10-13T18:22:23;9.07;;;2.88;;
69856;SDS011;57147;53.582;10.112;2023-10-13T18:27:24;8.88;;;2.42;;
69856;SDS011;57147;53.582;10.112;2023-10-13T18:32:27;9.23;;;3.33;;
69856;SDS011;57147;53.582;10.112;2023-10-13T18:37:27;8.43;;;3.45;;
69856;SDS011;57147;53.582;10.112;2023-10-13T18:42:28;10.45;;;3.17;;
69856;SDS011;57147;53.582;10.112;2023-10-13T18:47:31;8.43;;;3.40;;
69856;SDS011;57147;53.582;10.112;2023-10-13T18:52:32;7.35;;;2.35;;
69856;SDS011;57147;53.582;10.112;2023-10-13T18:57:32;8.70;;;2.47;;
69856;SDS011;57147;53.582;10.112;2023-10-13T19:02:36;5.65;;;1.88;;
69856;SDS011;57147;53.582;10.112;2023-10-13T19:07:37;7.85;;;2.58;;
69856;SDS011;57147;53.582;10.112;2023-10-13T19:12:37;6.38;;;2.13;;
69856;SDS011;57147;53.582;10.112;2023-10-13T19:17:41;7.13;;;2.55;;
69856;SDS011;57147;53.582;10.112;2023-10-13T19:22:42;7.35;;;2.58;;
69856;SDS011;57147;53.582;10.112;2023-10-13T19:27:44;8.02;;;2.92;;
69856;SDS011;57147;53.582;10.112;2023-10-13T19:32:47;10.73;;;5.35;;
69856;SDS011;57147;53.582;10.112;2023-10-13T19:37:48;13.00;;;3.88;;
69856;SDS011;57147;53.582;10.112;2023-10-13T19:42:48;13.20;;;4.05;;
69856;SDS011;57147;53.582;10.112;2023-10-13T19:47:51;13.63;;;4.95;;
69856;SDS011;57147;53.582;10.112;2023-10-13T19:52:52;11.65;;;4.20;;
69856;SDS011;57147;53.582;10.112;2023-10-13T19:57:55;10.85;;;4.50;;
69856;SDS011;57147;53.582;10.112;2023-10-13T20:02:59;14.75;;;4.88;;
69856;SDS011;57147;53.582;10.112;2023-10-13T20:07:59;14.45;;;4.60;;
69856;SDS011;57147;53.582;10.112;2023-10-13T20:13:00;13.90;;;4.22;;
69856;SDS011;57147;53.582;10.112;2023-10-13T20:18:03;13.02;;;3.80;;
69856;SDS011;57147;53.582;10.112;2023-10-13T20:23:04;13.98;;;4.47;;
69856;SDS011;57147;53.582;10.112;2023-10-13T20:28:05;11.25;;;3.92;;
69856;SDS011;57147;53.582;10.112;2023-10-13T20:33:08;10.73;;;3.80;;
69856;SDS011;57147;53.582;10.112;2023-10-13T20:38:09;8.82;;;3.67;;
69856;SDS011;57147;53.582;10.112;2023-10-13T20:43:11;11.10;;;3.97;;
69856;SDS011;57147;53.582;10.112;2023-10-13T20:48:16;7.28;;;3.90;;
69856;SDS011;57147;53.582;10.112;2023-10-13T20:58:16;9.30;;;2.97;;
69856;SDS011;57147;53.582;10.112;2023-10-13T21:03:20;7.82;;;3.05;;
69856;SDS011;57147;53.582;10.112;2023-10-13T21:08:20;11.10;;;4.13;;
69856;SDS011;57147;53.582;10.112;2023-10-13T21:13:21;10.90;;;3.72;;
69856;SDS011;57147;53.582;10.112;2023-10-13T21:18:25;9.35;;;3.05;;
69856;SDS011;57147;53.582;10.112;2023-10-13T21:23:26;9.05;;;3.40;;
69856;SDS011;57147;53.582;10.112;2023-10-13T21:28:27;10.02;;;3.72;;
69856;SDS011;57147;53.582;10.112;2023-10-13T21:33:30;6.97;;;3.05;;
69856;SDS011;57147;53.582;10.112;2023-10-13T21:38:31;7.78;;;2.92;;
69856;SDS011;57147;53.582;10.112;2023-10-13T21:43:32;8.80;;;3.40;;
69856;SDS011;57147;53.582;10.112;2023-10-13T21:48:35;8.35;;;3.58;;
69856;SDS011;57147;53.582;10.112;2023-10-13T21:53:36;5.63;;;2.70;;
69856;SDS011;57147;53.582;10.112;2023-10-13T21:58:37;7.70;;;2.60;;
69856;SDS011;57147;53.582;10.112;2023-10-13T22:03:40;6.70;;;3.50;;
69856;SDS011;57147;53.582;10.112;2023-10-13T22:08:40;5.80;;;3.13;;
69856;SDS011;57147;53.582;10.112;2023-10-13T22:13:41;6.57;;;2.47;;
69856;SDS011;57147;53.582;10.112;2023-10-13T22:18:45;8.18;;;3.40;;
69856;SDS011;57147;53.582;10.112;2023-10-13T22:23:48;6.80;;;2.97;;
69856;SDS011;57147;53.582;10.112;2023-10-13T22:28:49;6.55;;;3.38;;
69856;SDS011;57147;53.582;10.112;2023-10-13T22:33:52;9.73;;;3.17;;
69856;SDS011;57147;53.582;10.112;2023-10-13T22:38:54;8.88;;;3.83;;
69856;SDS011;57147;53.582;10.112;2023-10-13T22:43:55;10.40;;;4.45;;
69856;SDS011;57147;53.582;10.112;2023-10-13T22:48:59;12.27;;;3.72;;
69856;SDS011;57147;53.582;10.112;2023-10-13T22:53:59;10.18;;;4.25;;
69856;SDS011;57147;53.582;10.112;2023-10-13T22:59:00;7.93;;;4.10;;
69856;SDS011;57147;53.582;10.112;2023-10-13T23:04:03;9.32;;;4.70;;
69856;SDS011;57147;53.582;10.112;2023-10-13T23:09:04;10.27;;;3.95;;
69856;SDS011;57147;53.582;10.112;2023-10-13T23:14:04;13.57;;;5.13;;
69856;SDS011;57147;53.582;10.112;2023-10-13T23:19:07;14.52;;;6.18;;
69856;SDS011;57147;53.582;10.112;2023-10-13T23:24:08;13.80;;;7.15;;
69856;SDS011;57147;53.582;10.112;2023-10-13T23:29:09;17.75;;;8.52;;
69856;SDS011;57147;53.582;10.112;2023-10-13T23:34:12;13.75;;;8.02;;
69856;SDS011;57147;53.582;10.112;2023-10-13T23:39:12;16.42;;;9.15;;
69856;SDS011;57147;53.582;10.112;2023-10-13T23:44:13;18.13;;;8.90;;
69856;SDS011;57147;53.582;10.112;2023-10-13T23:49:16;15.63;;;9.75;;
69856;SDS011;57147;53.582;10.112;2023-10-13T23:54:17;14.75;;;7.65;;
69856;SDS011;57147;53.582;10.112;2023-10-13T23:59:18;15.35;;;7.90;;
